Time;durP1;ratioP1;P1;durP2;ratioP2;P2;SDS_P1;SDS_P2;PMS_P1;PMS_P2;Temp;Humidity;BMP_temperature;BMP_pressure;BME280_temperature;BME280_humidity;BME280_pressure;Samples;Min_cycle;Max_cycle;Signal;HPM_P1;HPM_P2
2022/07/22 00:02:04;;;;;;;5.35;2.70;;;;;;;;;;5064797;28;20047;-65
2022/07/22 00:04:30;;;;;;;4.47;2.85;;;;;;;;;;5056443;28;20032;-65
2022/07/22 00:06:55;;;;;;;3.03;2.60;;;;;;;;;;5049367;28;20212;-64
2022/07/22 00:09:21;;;;;;;5.20;2.80;;;;;;;;;;5063111;28;20135;-65
2022/07/22 00:11:46;;;;;;;4.95;2.80;;;;;;;;;;5068207;28;20032;-64
2022/07/22 00:14:12;;;;;;;4.60;2.65;;;;;;;;;;5051987;28;20035;-64
2022/07/22 00:16:38;;;;;;;7.18;2.88;;;;;;;;;;5063496;28;20043;-64
2022/07/22 00:19:03;;;;;;;4.72;2.70;;;;;;;;;;5058008;28;20100;-64
2022/07/22 00:21:29;;;;;;;4.47;2.53;;;;;;;;;;5056475;28;20029;-63
2022/07/22 00:23:54;;;;;;;7.05;2.75;;;;;;;;;;5050487;28;20384;-64
2022/07/22 00:26:20;;;;;;;8.75;2.70;;;;;;;;;;5051452;28;20036;-65
2022/07/22 00:28:45;;;;;;;4.30;2.60;;;;;;;;;;5035844;28;20037;-63
2022/07/22 00:31:11;;;;;;;4.55;2.92;;;;;;;;;;5052622;28;20082;-63
2022/07/22 00:33:36;;;;;;;4.45;2.33;;;;;;;;;;5047904;28;20029;-64
2022/07/22 00:36:02;;;;;;;7.20;2.55;;;;;;;;;;5067663;28;20465;-63
2022/07/22 00:38:27;;;;;;;4.35;2.30;;;;;;;;;;5061851;28;20043;-62
2022/07/22 00:40:52;;;;;;;4.53;2.47;;;;;;;;;;5064528;28;20115;-62
2022/07/22 00:43:18;;;;;;;5.35;2.38;;;;;;;;;;5070325;28;20021;-64
2022/07/22 00:45:43;;;;;;;6.00;2.50;;;;;;;;;;5055248;28;20029;-64
2022/07/22 00:48:09;;;;;;;3.90;2.30;;;;;;;;;;5068368;28;20492;-62
2022/07/22 00:50:34;;;;;;;6.63;2.50;;;;;;;;;;5061827;28;20052;-63
2022/07/22 00:53:00;;;;;;;5.88;2.30;;;;;;;;;;5054605;28;20037;-63
2022/07/22 00:55:26;;;;;;;7.40;2.60;;;;;;;;;;5061719;28;20127;-64
2022/07/22 00:57:51;;;;;;;6.15;2.30;;;;;;;;;;5054746;28;20511;-64
2022/07/22 01:00:20;;;;;;;7.60;2.75;;;;;;;;;;5058417;28;20061;-62
2022/07/22 01:02:46;;;;;;;4.90;2.40;;;;;;;;;;5055124;28;20118;-62
2022/07/22 01:05:11;;;;;;;5.20;2.53;;;;;;;;;;5069509;28;20064;-62
2022/07/22 01:07:38;;;;;;;7.22;2.45;;;;;;;;;;5056691;28;20389;-62
2022/07/22 01:10:05;;;;;;;5.30;2.55;;;;;;;;;;5059767;28;20029;-62
2022/07/22 01:12:31;;;;;;;5.05;2.50;;;;;;;;;;5052551;28;20025;-62
2022/07/22 01:14:57;;;;;;;4.45;2.35;;;;;;;;;;5055115;28;20036;-62
2022/07/22 01:17:23;;;;;;;5.35;2.97;;;;;;;;;;5061606;28;20032;-64
2022/07/22 01:19:48;;;;;;;5.30;2.60;;;;;;;;;;5056657;28;20036;-62
2022/07/22 01:22:14;;;;;;;5.30;2.50;;;;;;;;;;5056948;28;20108;-63
2022/07/22 01:24:39;;;;;;;6.03;2.92;;;;;;;;;;5055983;28;20115;-63
2022/07/22 01:27:05;;;;;;;6.35;3.03;;;;;;;;;;5064075;28;20465;-64
2022/07/22 01:29:30;;;;;;;6.60;3.00;;;;;;;;;;5065632;28;20106;-64
2022/07/22 01:31:56;;;;;;;4.05;2.78;;;;;;;;;;5047986;28;20481;-62
2022/07/22 01:34:22;;;;;;;5.30;2.88;;;;;;;;;;5065872;28;20041;-63
2022/07/22 01:36:47;;;;;;;8.52;3.20;;;;;;;;;;5060898;28;20037;-63
2022/07/22 01:39:13;;;;;;;5.85;2.85;;;;;;;;;;5054196;28;20385;-64
2022/07/22 01:41:39;;;;;;;6.32;2.72;;;;;;;;;;5070970;28;20025;-63
2022/07/22 01:44:05;;;;;;;6.95;3.53;;;;;;;;;;5072934;28;20097;-62
2022/07/22 01:46:31;;;;;;;7.20;3.13;;;;;;;;;;5052301;28;20041;-64
2022/07/22 01:48:56;;;;;;;8.95;3.38;;;;;;;;;;5053199;28;20039;-63
2022/07/22 01:51:22;;;;;;;6.78;3.25;;;;;;;;;;5053923;28;20422;-63
2022/07/22 01:53:47;;;;;;;9.05;3.35;;;;;;;;;;5067412;28;20040;-63
2022/07/22 01:56:13;;;;;;;6.65;2.95;;;;;;;;;;5062059;28;20135;-64
2022/07/22 01:58:38;;;;;;;5.35;2.90;;;;;;;;;;5073356;28;20036;-64
2022/07/22 02:01:04;;;;;;;10.48;3.75;;;;;;;;;;5072642;28;20057;-63
2022/07/22 02:03:29;;;;;;;6.47;3.33;;;;;;;;;;5059381;28;20063;-64
2022/07/22 02:05:55;;;;;;;8.48;3.67;;;;;;;;;;5073280;28;20035;-64
2022/07/22 02:08:20;;;;;;;9.93;3.70;;;;;;;;;;5069158;28;20126;-63
2022/07/22 02:10:46;;;;;;;9.68;3.97;;;;;;;;;;5052882;28;20118;-63
2022/07/22 02:13:11;;;;;;;9.00;4.07;;;;;;;;;;5054155;28;20060;-63
2022/07/22 02:15:37;;;;;;;8.60;3.88;;;;;;;;;;5053249;28;20021;-63
2022/07/22 02:18:16;;;;;;;8.98;3.83;;;;;;;;;;5067077;28;20067;-64
2022/07/22 02:20:42;;;;;;;8.55;3.85;;;;;;;;;;5062858;28;20039;-63
2022/07/22 02:23:08;;;;;;;9.85;4.00;;;;;;;;;;5059489;28;20036;-63
2022/07/22 02:25:34;;;;;;;10.07;4.10;;;;;;;;;;5073145;28;20056;-64
2022/07/22 02:28:00;;;;;;;7.05;3.90;;;;;;;;;;5064278;28;20037;-64
2022/07/22 02:30:26;;;;;;;8.80;4.32;;;;;;;;;;5070966;28;20040;-64
2022/07/22 02:32:51;;;;;;;8.30;4.00;;;;;;;;;;5073120;28;20024;-63
2022/07/22 02:35:16;;;;;;;8.63;4.32;;;;;;;;;;5071882;28;20028;-63
2022/07/22 02:37:42;;;;;;;9.85;4.07;;;;;;;;;;5053057;28;20081;-63
2022/07/22 02:40:08;;;;;;;10.50;4.15;;;;;;;;;;5052727;28;20465;-63
2022/07/22 02:42:34;;;;;;;9.20;4.53;;;;;;;;;;5071801;28;20050;-65
2022/07/22 02:45:00;;;;;;;9.75;4.75;;;;;;;;;;5068696;28;20996;-63
2022/07/22 02:47:26;;;;;;;11.00;5.03;;;;;;;;;;5053001;28;20508;-63
2022/07/22 02:49:51;;;;;;;13.90;5.13;;;;;;;;;;5052965;28;20063;-63
2022/07/22 02:52:17;;;;;;;8.30;4.55;;;;;;;;;;5071976;28;20089;-62
2022/07/22 02:54:42;;;;;;;10.45;4.88;;;;;;;;;;5069102;28;20032;-65
2022/07/22 02:57:08;;;;;;;11.00;4.70;;;;;;;;;;5061141;28;20143;-65
2022/07/22 02:59:33;;;;;;;14.57;4.97;;;;;;;;;;5055193;28;20036;-63
2022/07/22 03:01:58;;;;;;;10.80;4.65;;;;;;;;;;5071534;28;20354;-62
2022/07/22 03:04:24;;;;;;;11.35;4.80;;;;;;;;;;5068763;28;20052;-63
2022/07/22 03:06:49;;;;;;;11.23;4.70;;;;;;;;;;5051944;28;20101;-63
2022/07/22 03:09:15;;;;;;;11.75;5.57;;;;;;;;;;5052536;28;20036;-63
2022/07/22 03:11:40;;;;;;;11.05;4.97;;;;;;;;;;5052022;28;20044;-63
2022/07/22 03:14:06;;;;;;;11.93;5.35;;;;;;;;;;5064324;28;20024;-63
2022/07/22 03:16:31;;;;;;;10.50;5.43;;;;;;;;;;5072171;28;20469;-66
2022/07/22 03:18:57;;;;;;;11.27;5.40;;;;;;;;;;5059527;28;20039;-63
2022/07/22 03:21:22;;;;;;;8.57;5.07;;;;;;;;;;5052390;28;20029;-63
2022/07/22 03:23:53;;;;;;;12.15;4.63;;;;;;;;;;5061695;28;20043;-63
2022/07/22 03:26:19;;;;;;;11.68;4.50;;;;;;;;;;5070580;28;20044;-63
2022/07/22 03:28:45;;;;;;;11.60;4.10;;;;;;;;;;5065972;28;20100;-63
2022/07/22 03:31:10;;;;;;;8.43;4.20;;;;;;;;;;5072212;28;20115;-63
2022/07/22 03:33:36;;;;;;;10.00;4.13;;;;;;;;;;5062058;28;20029;-63
2022/07/22 03:36:01;;;;;;;9.52;3.83;;;;;;;;;;5055996;28;20453;-62
2022/07/22 03:38:26;;;;;;;13.15;4.35;;;;;;;;;;5072264;28;20024;-63
2022/07/22 03:40:52;;;;;;;10.00;3.80;;;;;;;;;;5054805;28;20051;-63
2022/07/22 03:43:17;;;;;;;8.40;3.90;;;;;;;;;;5051833;28;20033;-64
2022/07/22 03:45:44;;;;;;;6.90;3.45;;;;;;;;;;5050198;28;20036;-63
2022/07/22 03:48:10;;;;;;;8.80;3.55;;;;;;;;;;5052426;28;20373;-63
2022/07/22 03:50:35;;;;;;;8.32;3.40;;;;;;;;;;5058001;28;20466;-64
2022/07/22 03:53:01;;;;;;;7.60;3.50;;;;;;;;;;5088565;28;20035;-62
2022/07/22 03:55:26;;;;;;;7.57;3.50;;;;;;;;;;5082366;28;20032;-63
2022/07/22 03:57:52;;;;;;;12.55;3.67;;;;;;;;;;5078038;28;20029;-63
2022/07/22 04:00:17;;;;;;;10.25;3.80;;;;;;;;;;5051696;28;20044;-62
2022/07/22 04:02:42;;;;;;;11.75;3.78;;;;;;;;;;5060099;28;20043;-64
2022/07/22 04:05:08;;;;;;;9.57;3.80;;;;;;;;;;5067531;28;20037;-63
2022/07/22 04:07:33;;;;;;;11.00;4.47;;;;;;;;;;5066019;28;20036;-65
2022/07/22 04:10:05;;;;;;;10.50;4.63;;;;;;;;;;5038361;28;20405;-63
2022/07/22 04:12:35;;;;;;;9.75;4.38;;;;;;;;;;5050775;28;20400;-63
2022/07/22 04:15:01;;;;;;;13.90;4.75;;;;;;;;;;5051462;28;20043;-63
2022/07/22 04:17:26;;;;;;;11.75;4.65;;;;;;;;;;5076342;28;20112;-63
2022/07/22 04:19:51;;;;;;;9.30;4.63;;;;;;;;;;5071171;28;20043;-63
2022/07/22 04:22:17;;;;;;;11.00;4.60;;;;;;;;;;5088779;28;20039;-63
2022/07/22 04:24:42;;;;;;;10.25;5.25;;;;;;;;;;5053148;28;20059;-63
2022/07/22 04:27:08;;;;;;;8.65;4.05;;;;;;;;;;5065247;28;20033;-63
2022/07/22 04:29:33;;;;;;;11.63;4.38;;;;;;;;;;5069373;28;20461;-65
2022/07/22 04:31:58;;;;;;;14.10;4.50;;;;;;;;;;5067554;28;20033;-63
2022/07/22 04:34:24;;;;;;;7.05;3.78;;;;;;;;;;5091784;28;20396;-63
2022/07/22 04:36:49;;;;;;;8.35;4.43;;;;;;;;;;5066661;28;20036;-63
2022/07/22 04:39:14;;;;;;;12.00;4.32;;;;;;;;;;5051740;28;20035;-63
2022/07/22 04:41:40;;;;;;;13.85;4.68;;;;;;;;;;5062942;28;20047;-63
2022/07/22 04:44:05;;;;;;;10.02;4.47;;;;;;;;;;5070642;28;20052;-63
2022/07/22 04:46:31;;;;;;;9.68;3.92;;;;;;;;;;5072136;28;20103;-63
2022/07/22 04:48:57;;;;;;;9.73;4.07;;;;;;;;;;5067740;28;20107;-63
2022/07/22 04:51:24;;;;;;;8.63;4.07;;;;;;;;;;5069727;28;20566;-64
2022/07/22 04:53:49;;;;;;;9.00;4.00;;;;;;;;;;5054280;28;20036;-63
2022/07/22 04:56:14;;;;;;;10.32;3.92;;;;;;;;;;5054766;28;20401;-62
2022/07/22 04:58:40;;;;;;;9.77;4.30;;;;;;;;;;5052620;28;20053;-63
2022/07/22 05:01:05;;;;;;;10.15;4.00;;;;;;;;;;5061122;28;20036;-63
2022/07/22 05:03:31;;;;;;;11.23;4.03;;;;;;;;;;5070949;28;20115;-63
2022/07/22 05:05:56;;;;;;;10.40;3.95;;;;;;;;;;5063257;28;20033;-63
2022/07/22 05:08:22;;;;;;;10.70;4.32;;;;;;;;;;5058668;28;20036;-62
2022/07/22 05:10:47;;;;;;;9.43;3.92;;;;;;;;;;5066822;28;20033;-63
2022/07/22 05:13:13;;;;;;;9.82;4.25;;;;;;;;;;5070272;28;20495;-62
2022/07/22 05:15:39;;;;;;;10.70;4.38;;;;;;;;;;5070963;28;20036;-65
2022/07/22 05:18:04;;;;;;;11.60;4.18;;;;;;;;;;5071107;28;20033;-63
2022/07/22 05:20:30;;;;;;;9.82;4.22;;;;;;;;;;5071435;28;20029;-62
2022/07/22 05:22:55;;;;;;;11.45;4.40;;;;;;;;;;5068405;28;20028;-63
2022/07/22 05:25:20;;;;;;;8.80;3.70;;;;;;;;;;5073951;28;20029;-65
2022/07/22 05:27:50;;;;;;;11.50;3.60;;;;;;;;;;5069966;28;20036;-64
2022/07/22 05:30:16;;;;;;;7.70;3.43;;;;;;;;;;5073986;28;20515;-66
2022/07/22 05:32:41;;;;;;;8.23;3.58;;;;;;;;;;5073368;28;20071;-67
2022/07/22 05:35:07;;;;;;;11.45;3.63;;;;;;;;;;5066708;28;20077;-65
2022/07/22 05:37:32;;;;;;;9.88;3.50;;;;;;;;;;5054726;28;20493;-65
2022/07/22 05:39:58;;;;;;;6.88;3.35;;;;;;;;;;5053756;28;20594;-65
2022/07/22 05:42:23;;;;;;;8.23;3.20;;;;;;;;;;5066556;28;20028;-62
2022/07/22 05:44:49;;;;;;;7.60;2.60;;;;;;;;;;5061005;28;20453;-67
2022/07/22 05:47:14;;;;;;;9.30;2.83;;;;;;;;;;5074320;28;20040;-62
2022/07/22 05:49:39;;;;;;;5.88;2.33;;;;;;;;;;5073718;28;20479;-69
2022/07/22 05:52:05;;;;;;;8.95;2.47;;;;;;;;;;5072931;28;20052;-66
2022/07/22 05:54:30;;;;;;;5.90;2.47;;;;;;;;;;5061050;28;20039;-65
2022/07/22 05:56:56;;;;;;;8.95;2.58;;;;;;;;;;5066396;28;20059;-66
2022/07/22 05:59:21;;;;;;;8.38;2.60;;;;;;;;;;5078210;28;20032;-66
2022/07/22 06:01:46;;;;;;;7.57;2.20;;;;;;;;;;5073672;28;20068;-64
2022/07/22 06:04:12;;;;;;;10.05;2.30;;;;;;;;;;5040242;28;20039;-65
2022/07/22 06:06:37;;;;;;;10.05;2.10;;;;;;;;;;5064545;28;20056;-67
2022/07/22 06:09:03;;;;;;;6.03;1.98;;;;;;;;;;5061405;28;20035;-61
2022/07/22 06:11:28;;;;;;;6.78;1.98;;;;;;;;;;5073314;28;20396;-65
2022/07/22 06:13:54;;;;;;;5.47;1.95;;;;;;;;;;5057105;28;20033;-67
2022/07/22 06:16:19;;;;;;;4.72;1.98;;;;;;;;;;5053462;28;20135;-65
2022/07/22 06:18:44;;;;;;;4.18;1.85;;;;;;;;;;5062346;28;20097;-65
2022/07/22 06:21:10;;;;;;;7.10;1.90;;;;;;;;;;5063137;28;20040;-67
2022/07/22 06:23:35;;;;;;;6.85;2.10;;;;;;;;;;5063171;28;20035;-66
2022/07/22 06:26:01;;;;;;;5.55;1.98;;;;;;;;;;5061636;28;20209;-67
2022/07/22 06:28:26;;;;;;;5.20;1.90;;;;;;;;;;5069465;28;20505;-66
2022/07/22 06:30:51;;;;;;;5.68;2.15;;;;;;;;;;5057254;28;20446;-65
2022/07/22 06:33:17;;;;;;;4.00;1.63;;;;;;;;;;5068757;28;20431;-65
2022/07/22 06:35:42;;;;;;;5.25;1.70;;;;;;;;;;5070577;28;20031;-68
2022/07/22 06:38:08;;;;;;;5.70;2.03;;;;;;;;;;5072089;28;20469;-61
2022/07/22 06:40:34;;;;;;;6.07;1.60;;;;;;;;;;5057738;28;20041;-65
2022/07/22 06:43:00;;;;;;;4.88;1.80;;;;;;;;;;5072105;28;20255;-64
2022/07/22 06:45:26;;;;;;;4.93;1.85;;;;;;;;;;5067924;28;20461;-65
2022/07/22 06:47:51;;;;;;;6.70;1.95;;;;;;;;;;5066360;28;20044;-62
2022/07/22 06:50:17;;;;;;;6.65;2.00;;;;;;;;;;5066653;28;20031;-65
2022/07/22 06:52:43;;;;;;;3.60;1.80;;;;;;;;;;5055620;28;20101;-67
2022/07/22 06:55:09;;;;;;;7.18;1.90;;;;;;;;;;5069427;28;20055;-64
2022/07/22 06:57:37;;;;;;;4.13;1.90;;;;;;;;;;5067287;28;20029;-65
2022/07/22 07:00:07;;;;;;;4.88;2.00;;;;;;;;;;5054323;28;20028;-63
2022/07/22 07:02:32;;;;;;;5.85;1.80;;;;;;;;;;5072221;28;20093;-64
2022/07/22 07:04:58;;;;;;;5.00;1.83;;;;;;;;;;5067431;28;20056;-65
2022/07/22 07:07:24;;;;;;;4.80;1.60;;;;;;;;;;5065199;28;20358;-64
2022/07/22 07:09:49;;;;;;;7.03;1.90;;;;;;;;;;5072083;28;20044;-64
2022/07/22 07:12:14;;;;;;;5.22;1.88;;;;;;;;;;5071811;28;20465;-64
2022/07/22 07:14:40;;;;;;;6.60;1.92;;;;;;;;;;5043838;28;20089;-67
2022/07/22 07:17:05;;;;;;;4.68;2.00;;;;;;;;;;5067740;28;20028;-64
2022/07/22 07:19:31;;;;;;;4.10;1.80;;;;;;;;;;5052511;28;20385;-66
2022/07/22 07:21:56;;;;;;;5.38;2.03;;;;;;;;;;5063030;28;20036;-66
2022/07/22 07:24:21;;;;;;;4.22;1.90;;;;;;;;;;5071601;28;20052;-63
2022/07/22 07:26:47;;;;;;;4.10;1.70;;;;;;;;;;5057684;28;20458;-65
2022/07/22 07:29:12;;;;;;;4.72;2.03;;;;;;;;;;5068706;28;20039;-62
2022/07/22 07:31:38;;;;;;;6.15;2.00;;;;;;;;;;5054251;28;20040;-63
2022/07/22 07:34:03;;;;;;;5.10;2.00;;;;;;;;;;5051386;28;20032;-64
2022/07/22 07:36:28;;;;;;;4.68;2.00;;;;;;;;;;5048941;28;20389;-65
2022/07/22 07:38:54;;;;;;;6.60;1.90;;;;;;;;;;5062158;28;20432;-64
2022/07/22 07:41:19;;;;;;;4.13;1.80;;;;;;;;;;5054421;28;20037;-62
2022/07/22 07:43:45;;;;;;;3.03;1.80;;;;;;;;;;5051441;28;20464;-65
2022/07/22 07:46:10;;;;;;;4.18;1.92;;;;;;;;;;5051548;28;20503;-62
2022/07/22 07:48:35;;;;;;;4.43;1.70;;;;;;;;;;5065550;28;20044;-64
2022/07/22 07:51:01;;;;;;;4.15;1.92;;;;;;;;;;5071256;28;20476;-64
2022/07/22 07:53:26;;;;;;;4.30;1.90;;;;;;;;;;5068190;28;20082;-64
2022/07/22 07:55:52;;;;;;;4.13;1.80;;;;;;;;;;5071015;28;20052;-63
2022/07/22 07:58:17;;;;;;;7.05;1.98;;;;;;;;;;5071014;28;20037;-63
2022/07/22 08:00:42;;;;;;;4.60;2.22;;;;;;;;;;5071532;28;20032;-66
2022/07/22 08:03:08;;;;;;;6.57;1.85;;;;;;;;;;5069090;28;20033;-64
2022/07/22 08:05:35;;;;;;;5.20;2.15;;;;;;;;;;5071937;28;20043;-64
2022/07/22 08:08:00;;;;;;;4.00;2.13;;;;;;;;;;5054082;28;20214;-64
2022/07/22 08:10:26;;;;;;;5.03;2.10;;;;;;;;;;5034039;28;20462;-63
2022/07/22 08:12:53;;;;;;;6.70;2.03;;;;;;;;;;5065607;28;20033;-65
2022/07/22 08:15:19;;;;;;;6.13;2.03;;;;;;;;;;5071744;28;20037;-64
2022/07/22 08:17:45;;;;;;;4.45;2.05;;;;;;;;;;5054543;28;20037;-66
2022/07/22 08:20:10;;;;;;;3.92;2.20;;;;;;;;;;5066558;28;20029;-64
2022/07/22 08:22:36;;;;;;;5.82;2.25;;;;;;;;;;5064483;28;20359;-62
2022/07/22 08:25:02;;;;;;;5.30;1.92;;;;;;;;;;5067227;28;20127;-63
2022/07/22 08:27:27;;;;;;;5.45;2.10;;;;;;;;;;5071803;28;20449;-60
2022/07/22 08:29:52;;;;;;;3.30;2.00;;;;;;;;;;5056806;28;20036;-64
2022/07/22 08:32:18;;;;;;;4.43;2.20;;;;;;;;;;5051638;28;20033;-61
2022/07/22 08:34:43;;;;;;;3.67;2.13;;;;;;;;;;5060371;28;20024;-67
2022/07/22 08:37:09;;;;;;;5.47;2.58;;;;;;;;;;5071564;28;20040;-65
2022/07/22 08:39:35;;;;;;;3.92;2.20;;;;;;;;;;5058389;28;20479;-63
2022/07/22 08:42:01;;;;;;;5.97;2.30;;;;;;;;;;5070783;28;20104;-63
2022/07/22 08:44:31;;;;;;;3.97;2.30;;;;;;;;;;5070434;28;20493;-62
2022/07/22 08:46:58;;;;;;;5.32;2.30;;;;;;;;;;5070494;28;20040;-64
2022/07/22 08:49:23;;;;;;;5.57;2.28;;;;;;;;;;5062302;28;20033;-66
2022/07/22 08:51:49;;;;;;;6.57;2.40;;;;;;;;;;5050610;28;20039;-67
2022/07/22 08:54:14;;;;;;;6.25;2.75;;;;;;;;;;5063011;28;20098;-64
2022/07/22 08:56:39;;;;;;;5.53;2.28;;;;;;;;;;5068645;28;20067;-64
2022/07/22 08:59:06;;;;;;;3.45;2.25;;;;;;;;;;5065000;28;20469;-62
2022/07/22 09:01:32;;;;;;;6.63;2.50;;;;;;;;;;5070294;28;20036;-66
2022/07/22 09:03:57;;;;;;;5.53;2.50;;;;;;;;;;5054363;28;20040;-64
2022/07/22 09:06:26;;;;;;;4.88;2.60;;;;;;;;;;5045607;28;20474;-62
2022/07/22 09:08:57;;;;;;;6.00;2.80;;;;;;;;;;5058354;28;20032;-65
2022/07/22 09:11:25;;;;;;;6.82;2.80;;;;;;;;;;5056293;28;20037;-64
2022/07/22 09:13:51;;;;;;;5.13;2.95;;;;;;;;;;5067168;28;20105;-65
2022/07/22 09:16:49;;;;;;;7.28;3.95;;;;;;;;;;5072750;28;20032;-62
2022/07/22 09:19:15;;;;;;;7.30;3.97;;;;;;;;;;5073240;28;20036;-65
2022/07/22 09:21:47;;;;;;;8.95;3.80;;;;;;;;;;5054214;28;20028;-68
2022/07/22 09:24:34;;;;;;;6.15;3.50;;;;;;;;;;5066690;28;20040;-61
2022/07/22 09:26:59;;;;;;;7.40;3.40;;;;;;;;;;5073533;28;20051;-64
2022/07/22 09:29:25;;;;;;;5.10;3.25;;;;;;;;;;5059664;28;20033;-63
2022/07/22 09:31:52;;;;;;;8.45;3.13;;;;;;;;;;5054068;28;20071;-59
2022/07/22 09:34:34;;;;;;;4.65;3.65;;;;;;;;;;5054421;28;20394;-63
2022/07/22 09:37:01;;;;;;;7.70;4.38;;;;;;;;;;5068582;28;20028;-63
2022/07/22 09:39:28;;;;;;;7.28;4.45;;;;;;;;;;5070394;28;20033;-64
2022/07/22 09:42:02;;;;;;;8.02;4.43;;;;;;;;;;5072467;28;20032;-62
2022/07/22 09:44:27;;;;;;;6.72;4.70;;;;;;;;;;5071370;28;20476;-61
2022/07/22 09:46:53;;;;;;;6.65;4.68;;;;;;;;;;5073772;28;20082;-64
2022/07/22 09:49:32;;;;;;;6.88;4.70;;;;;;;;;;5071277;28;20124;-60
2022/07/22 09:51:58;;;;;;;7.38;4.95;;;;;;;;;;5070741;28;20507;-64
2022/07/22 09:54:23;;;;;;;9.50;4.90;;;;;;;;;;5063715;28;20028;-64
2022/07/22 09:56:48;;;;;;;6.85;4.85;;;;;;;;;;5074180;28;20052;-65
2022/07/22 09:59:14;;;;;;;10.25;4.68;;;;;;;;;;5075209;28;20771;-65
2022/07/22 10:01:40;;;;;;;7.43;4.05;;;;;;;;;;5075277;28;20025;-64
2022/07/22 10:04:06;;;;;;;8.13;5.38;;;;;;;;;;5073332;28;20090;-64
2022/07/22 10:06:33;;;;;;;10.68;6.03;;;;;;;;;;5071605;28;20051;-64
2022/07/22 10:08:59;;;;;;;8.25;5.30;;;;;;;;;;5056611;28;20038;-62
2022/07/22 10:11:24;;;;;;;8.27;5.93;;;;;;;;;;5068653;28;20061;-64
2022/07/22 10:13:51;;;;;;;7.28;5.50;;;;;;;;;;5053050;28;20056;-66
2022/07/22 10:16:17;;;;;;;7.07;5.32;;;;;;;;;;5064948;28;20032;-66
2022/07/22 10:18:46;;;;;;;9.88;5.55;;;;;;;;;;5073210;28;20059;-67
2022/07/22 10:21:14;;;;;;;9.85;5.43;;;;;;;;;;5072993;28;20044;-65
2022/07/22 10:24:09;;;;;;;6.82;5.20;;;;;;;;;;5065803;28;20458;-64
2022/07/22 10:26:49;;;;;;;7.93;5.03;;;;;;;;;;5069816;28;20029;-64
2022/07/22 10:29:30;;;;;;;9.32;5.40;;;;;;;;;;5053758;28;20025;-64
2022/07/22 10:32:24;;;;;;;9.05;5.78;;;;;;;;;;5052826;28;20087;-65
2022/07/22 10:34:59;;;;;;;9.65;6.10;;;;;;;;;;5071901;28;20071;-65
2022/07/22 10:37:51;;;;;;;8.18;5.88;;;;;;;;;;5053306;28;20461;-65
2022/07/22 10:40:22;;;;;;;10.23;5.88;;;;;;;;;;5051870;28;20132;-64
2022/07/22 10:42:59;;;;;;;10.25;6.03;;;;;;;;;;5054251;28;20033;-65
2022/07/22 10:45:32;;;;;;;14.27;5.60;;;;;;;;;;5053023;28;20025;-64
2022/07/22 10:48:08;;;;;;;9.52;5.72;;;;;;;;;;5052323;28;20035;-64
2022/07/22 10:50:40;;;;;;;8.50;5.40;;;;;;;;;;5064333;28;20024;-65
2022/07/22 10:53:22;;;;;;;8.63;6.30;;;;;;;;;;5060030;28;20036;-65
2022/07/22 10:56:01;;;;;;;9.13;5.93;;;;;;;;;;5070888;28;20182;-65
2022/07/22 10:58:32;;;;;;;8.00;6.00;;;;;;;;;;5056720;28;20032;-65
2022/07/22 11:01:04;;;;;;;9.43;6.47;;;;;;;;;;5063009;28;20033;-65
2022/07/22 11:03:31;;;;;;;7.63;6.00;;;;;;;;;;5061275;28;20082;-65
2022/07/22 11:05:57;;;;;;;9.25;6.60;;;;;;;;;;5071262;28;20029;-65
2022/07/22 11:08:22;;;;;;;9.25;6.65;;;;;;;;;;5066371;28;20496;-65
2022/07/22 11:10:49;;;;;;;8.70;6.15;;;;;;;;;;5069972;28;20037;-65
2022/07/22 11:13:35;;;;;;;10.02;6.05;;;;;;;;;;5067333;28;20031;-63
2022/07/22 11:16:19;;;;;;;9.27;5.78;;;;;;;;;;5052481;28;20037;-66
2022/07/22 11:18:50;;;;;;;8.10;5.95;;;;;;;;;;5064836;28;20033;-65
2022/07/22 11:21:19;;;;;;;7.68;5.65;;;;;;;;;;5047390;28;20033;-64
2022/07/22 11:23:46;;;;;;;11.07;6.43;;;;;;;;;;5067851;28;20035;-66
2022/07/22 11:26:14;;;;;;;7.32;5.55;;;;;;;;;;5052693;28;20032;-66
2022/07/22 11:28:42;;;;;;;9.82;5.63;;;;;;;;;;5066331;28;20043;-64
2022/07/22 11:31:09;;;;;;;8.02;5.50;;;;;;;;;;5071484;28;20028;-64
2022/07/22 11:33:34;;;;;;;9.15;5.90;;;;;;;;;;5072435;28;20032;-64
2022/07/22 11:36:09;;;;;;;10.57;6.55;;;;;;;;;;5068130;28;20093;-63
2022/07/22 11:38:48;;;;;;;10.15;6.82;;;;;;;;;;5052463;28;20024;-63
2022/07/22 11:41:19;;;;;;;8.23;6.53;;;;;;;;;;5052118;28;20605;-63
2022/07/22 11:43:48;;;;;;;;;;;;;;;;;;5051729;28;20036;-62
2022/07/22 11:46:16;;;;;;;9.80;6.28;;;;;;;;;;5058022;28;19997;-62
2022/07/22 11:48:42;;;;;;;8.07;5.75;;;;;;;;;;5063602;28;20041;-63
2022/07/22 11:51:12;;;;;;;9.23;7.32;;;;;;;;;;5059839;28;20115;-62
2022/07/22 11:53:39;;;;;;;10.43;7.23;;;;;;;;;;5054037;28;20035;-62
2022/07/22 11:56:07;;;;;;;10.63;7.57;;;;;;;;;;5070201;28;20143;-63
2022/07/22 11:58:39;;;;;;;12.63;7.38;;;;;;;;;;5072011;28;20112;-61
2022/07/22 12:01:06;;;;;;;9.45;7.22;;;;;;;;;;5068882;28;20520;-63
2022/07/22 12:03:35;;;;;;;11.30;7.90;;;;;;;;;;5067824;28;20094;-63
2022/07/22 12:06:02;;;;;;;16.08;7.90;;;;;;;;;;5070257;28;20102;-62
2022/07/22 12:08:28;;;;;;;12.23;7.70;;;;;;;;;;5067773;28;20461;-63
2022/07/22 12:10:56;;;;;;;10.68;7.80;;;;;;;;;;5050681;28;20032;-64
2022/07/22 12:13:27;;;;;;;10.15;7.93;;;;;;;;;;5051473;28;20431;-64
2022/07/22 12:15:52;;;;;;;11.82;7.32;;;;;;;;;;5050425;28;20417;-63
2022/07/22 12:18:20;;;;;;;10.65;7.45;;;;;;;;;;5055033;28;20041;-64
2022/07/22 12:20:47;;;;;;;9.60;7.10;;;;;;;;;;5056853;28;20076;-63
2022/07/22 12:23:13;;;;;;;10.90;6.75;;;;;;;;;;5063478;28;20086;-64
2022/07/22 12:25:55;;;;;;;10.45;6.05;;;;;;;;;;5055932;28;20133;-64
2022/07/22 12:28:21;;;;;;;9.32;6.57;;;;;;;;;;5055839;28;20381;-63
2022/07/22 12:30:49;;;;;;;14.13;7.10;;;;;;;;;;5066472;28;20050;-66
2022/07/22 12:33:16;;;;;;;8.73;6.65;;;;;;;;;;5032726;28;20040;-63
2022/07/22 12:35:42;;;;;;;10.32;8.00;;;;;;;;;;5050715;28;20145;-65
2022/07/22 12:38:10;;;;;;;10.82;7.25;;;;;;;;;;5069693;28;20423;-64
2022/07/22 12:40:37;;;;;;;10.85;7.05;;;;;;;;;;5062918;28;20029;-63
2022/07/22 12:43:09;;;;;;;12.73;7.55;;;;;;;;;;5059112;28;20036;-63
2022/07/22 12:45:36;;;;;;;11.38;7.28;;;;;;;;;;5059561;28;20024;-64
2022/07/22 12:48:05;;;;;;;10.75;7.93;;;;;;;;;;5055007;28;20029;-64
2022/07/22 12:50:58;;;;;;;10.00;7.45;;;;;;;;;;5050934;28;20128;-63
2022/07/22 12:53:25;;;;;;;9.65;6.80;;;;;;;;;;5055759;28;20028;-64
2022/07/22 12:55:56;;;;;;;9.82;7.22;;;;;;;;;;5069298;28;20052;-63
2022/07/22 12:58:27;;;;;;;15.95;7.70;;;;;;;;;;5071202;28;20111;-64
2022/07/22 13:00:55;;;;;;;9.60;6.95;;;;;;;;;;5062638;28;20116;-63
2022/07/22 13:03:25;;;;;;;10.82;7.60;;;;;;;;;;5068396;28;20155;-63
2022/07/22 13:05:56;;;;;;;10.50;7.10;;;;;;;;;;5047117;28;20033;-62
2022/07/22 13:08:22;;;;;;;9.23;6.80;;;;;;;;;;5051175;28;20044;-63
2022/07/22 13:10:49;;;;;;;9.65;6.43;;;;;;;;;;5049940;28;20044;-65
2022/07/22 13:13:14;;;;;;;10.43;7.30;;;;;;;;;;5050923;28;20036;-65
2022/07/22 13:15:40;;;;;;;11.18;7.28;;;;;;;;;;5051862;28;20021;-64
2022/07/22 13:18:05;;;;;;;9.82;7.07;;;;;;;;;;5063654;28;20500;-64
2022/07/22 13:20:31;;;;;;;9.35;6.93;;;;;;;;;;5064520;28;20024;-63
2022/07/22 13:22:56;;;;;;;9.52;7.10;;;;;;;;;;5048640;28;20051;-63
2022/07/22 13:25:22;;;;;;;12.45;6.82;;;;;;;;;;5051278;28;20021;-62
2022/07/22 13:27:47;;;;;;;10.48;6.97;;;;;;;;;;5050347;28;20457;-62
2022/07/22 13:30:13;;;;;;;11.32;7.50;;;;;;;;;;5063259;28;20105;-62
2022/07/22 13:32:38;;;;;;;10.40;6.80;;;;;;;;;;5051776;28;20036;-65
2022/07/22 13:35:04;;;;;;;8.82;7.15;;;;;;;;;;5069972;28;20099;-63
2022/07/22 13:37:30;;;;;;;10.55;7.18;;;;;;;;;;5062839;28;20032;-63
2022/07/22 13:39:55;;;;;;;10.90;7.88;;;;;;;;;;5052026;28;20055;-62
2022/07/22 13:42:20;;;;;;;11.73;7.75;;;;;;;;;;5042956;28;20035;-62
2022/07/22 13:44:47;;;;;;;10.43;7.05;;;;;;;;;;5067791;28;20032;-64
2022/07/22 13:47:13;;;;;;;10.38;7.70;;;;;;;;;;5054234;28;20059;-64
2022/07/22 13:49:38;;;;;;;10.23;7.50;;;;;;;;;;5054548;28;20143;-64
2022/07/22 13:52:04;;;;;;;10.25;7.70;;;;;;;;;;5051922;28;20477;-63
2022/07/22 13:54:30;;;;;;;11.30;7.85;;;;;;;;;;5068067;28;20044;-63
2022/07/22 13:56:56;;;;;;;10.98;8.00;;;;;;;;;;5056834;28;20040;-64
2022/07/22 13:59:23;;;;;;;10.35;7.30;;;;;;;;;;5049663;28;20074;-65
2022/07/22 14:01:49;;;;;;;8.90;7.60;;;;;;;;;;5061643;28;20067;-65
2022/07/22 14:04:14;;;;;;;11.27;6.90;;;;;;;;;;5066929;28;20064;-65
2022/07/22 14:06:39;;;;;;;10.77;7.50;;;;;;;;;;5065446;28;20461;-64
2022/07/22 14:09:05;;;;;;;9.23;7.40;;;;;;;;;;5054093;28;21436;-66
2022/07/22 14:11:30;;;;;;;9.20;7.05;;;;;;;;;;5041532;28;20028;-63
2022/07/22 14:13:56;;;;;;;8.90;7.00;;;;;;;;;;5070545;28;20536;-63
2022/07/22 14:16:33;;;;;;;9.25;6.93;;;;;;;;;;5044175;28;20044;-63
2022/07/22 14:19:17;;;;;;;9.65;7.10;;;;;;;;;;5083190;28;20081;-64
2022/07/22 14:21:45;;;;;;;9.77;7.40;;;;;;;;;;5065636;28;20059;-64
2022/07/22 14:24:11;;;;;;;10.43;6.63;;;;;;;;;;5073676;28;20040;-63
2022/07/22 14:26:37;;;;;;;12.30;6.97;;;;;;;;;;5069796;28;20044;-64
2022/07/22 14:29:04;;;;;;;10.00;7.10;;;;;;;;;;5072860;28;20040;-64
2022/07/22 14:31:30;;;;;;;12.35;7.60;;;;;;;;;;5071206;28;20051;-64
2022/07/22 14:33:56;;;;;;;10.35;6.82;;;;;;;;;;5063833;28;20029;-64
2022/07/22 14:36:21;;;;;;;10.05;6.50;;;;;;;;;;5070601;28;20427;-65
2022/07/22 14:38:49;;;;;;;9.18;7.30;;;;;;;;;;5072853;28;20056;-64
2022/07/22 14:41:15;;;;;;;9.75;7.10;;;;;;;;;;5071211;28;20041;-64